SBOSBO LBG / LFPB
Speedbird OnlineSpeedbird Online LBG / LFPB

Paris-Le Bourget Airport
18:43 21.9°C

Location Paris, France
Latitude: 48.969398498535156
Longitude: 2.441390037536621
Local Time 18:43 on 20 Jun 2024
UTC +2 hours (Europe/Paris)
Currency £1 equals EUR 1.18
METAR LFPB 201630Z AUTO 04007KT 9999 FEW028 SCT044 OVC150 22/16 Q1015 TEMPO 2000 -TSRA SCT025CB
TAF TAF LFPB 201100Z 2012/2112 04010KT CAVOK PROB40 TEMPO 2014/2018 4000 -SHRA SCT020TCU PROB30 TEMPO 2016/2018 2000 -TSRA SCT025CB BECMG 2104/2106 30010KT PROB40 TEMPO 2106/2112 4000 RA BKN007 PROB30 TEMPO 2107/2111 2000 -TSRA BKN030 FEW035CB
Weather As Of 20 Jun 2024 18:43
Description Overcast clouds
Wind 13 km/h from North-East (40°)
Cloud Cover 100%
Precipitation Rain: none, Snow: none
Sunrise 05:45
Sunset 21:57
Web Airport Website | Wikipedia
Codes IATA: LBG
ICAO: LFPB
Altitude 66 Meter / 218 Feet
Distance 327 KM / 203 Miles
from London.
Runways
RunwayLength (m)Surface
032395Asphalt
072991Concrete
091847Asphalt
212395Asphalt
252991Concrete
271847Asphalt
Radio
TypeDescriptionFrequency
APPDE GAULLE APP121.15
APPDE GAULLE APP136.275
ATISATIS120
DEPDE GAULLE DEP124.35
GNDGND121.9
PFLTPREFLIGHT121.95
TWRTWR118.925
Live ATC



Support Speedbird Online

© 2017-2024 Speedbird Online